CPH weather

Copenhagen Kastrup Airport
Copenhagen, Capital Region, Denmark

Public forecast

Using degrees Celsius for public forecast. Weather courtesy of forecast.io.

METAR (pilot weather report)

Retrieved 2018/08/18 06:50 UTC (25 minutes ago):

EKCH 180650Z 25011KT 9999 FEW025 18/14 Q1019 NOSIG

TAF (pilot weather forecast)

Retrieved 2018/08/18 06:00 UTC (1 hour ago):

TAF EKCH 180503Z 1806/1906 26005KT 9999 FEW035 BECMG 1809/1812 22015KT